默认 日期 大小 文件数 浏览量 最新下载 xml
- yoga磁力链接相关资源由用户搜索指令自动获取,结果来源于网络,本站不存储任何资料,亦不承担任何责任,请于24小时内删除,搜索到10723个磁力,显示前4000条数据,用时4ms。
    ... Temple.flac": 37780866, "Woman's Yoga Music.log": 10278, "04 Blessed ... , "Shakta Kaur Khalsa - Women's Yoga Music.cue": 2272, "Shakta Kaur ... Khalsa - Women's Yoga Music.m3u": 375, "10 Circle ...
创建时间: 2018-11-05 01:49:51 大小:433.8 MB 文件数量:18 热度:12 最近下载:2025-05-14 23:38:01
    {"poster.jpg": 36891, "screens.jpg": 402699, "p.15.05.01.ttiymxm.xxx.failed.mp4": 444298907}
创建时间: 2018-11-05 02:11:11 大小:424.14 MB 文件数量:3 热度:19 最近下载:2025-08-02 12:16:07
    {"mimturner-yoga_dl-720.mp4": 778917466}
创建时间: 2018-11-05 02:13:06 大小:742.83 MB 文件数量:1 热度:32 最近下载:2025-08-03 05:28:08
    {"Torrent Downloaded From Katcr.co - Kickasstorrents.txt": 110, "Yoga for Pain Relief - A New Approach to an Ancient Practice (2017).epub": 3705023}
创建时间: 2018-11-05 02:14:42 大小:3.53 MB 文件数量:2 热度:16 最近下载:2025-08-01 02:57:03
    {"Books.txt": 991, "Pardeep333.NFO": 1240, "pardeep333.gif": 28031, "AhaShare.com.txt": 59, "Demonoid.com.txt": 51, "Takoma, Adamson - The Complete Idiot's Guide to Power Yoga Book.pdf": 21261925}
创建时间: 2018-11-05 04:47:14 大小:20.31 MB 文件数量:6 热度:19 最近下载:2025-03-11 01:56:02
    {"cover.jpg": 41207, "mp3tag.m3u": 2319, "32. Dj Hush - Why (91 Bpm).mp3": 11557436, "26. Dj Kee - Drive (83 Bpm).mp3": 9324489, "47. Me Boy - Stars (70 Bpm).mp3": 8442595, "06. Me Boy - Prayer (80 Bpm).mp3": 10357895, "37. Me Boy - Crazy (102 Bpm).mp3": ...
创建时间: 2018-11-05 05:20:56 大小:470.1 MB 文件数量:52 热度:28 最近下载:2025-09-17 05:39:12
    {"Sacred Sexuality-Ancient Egyptian Tantric Yoga, 3rd Edition.pdf": 11151227}
创建时间: 2018-11-05 06:50:14 大小:10.63 MB 文件数量:1 热度:17 最近下载:2025-08-02 11:23:05
    {"01_Season_1_Disc_1.avi": 177598464, "02_Season_1_Disc_1.avi": 178366464, "03_Season_1_Disc_1.avi": 177944576, "04_Season_1_Disc_1.avi": 177305600, "05_Season_1_Disc_1.avi": 178176000, "06_Season_1_Disc_1.avi": 178108416, "07_Season_1_Disc_2.avi": ...
创建时间: 2018-11-05 07:47:32 大小:4.31 GB 文件数量:26 热度:25 最近下载:2025-06-24 15:43:02
    {"nfo.odt": 10725, "www.abw": 3576, "0151.jpg": 236074, "0203.jpg": 232003, "0251.jpg": 246019, "0276.jpg": 235905, "0301.jpg": 217141, "0319.jpg": 230003, "0326.jpg": 230228, "0343.jpg": 252439, "0351.jpg": 224056, "0376.jpg": 223635, "0394.jpg": 214758, ...
创建时间: 2018-11-05 08:03:13 大小:300.98 MB 文件数量:16 热度:42 最近下载:2025-09-08 00:20:03
    ... Electronica - Workout Music 2017 Pilates Yoga Deep House Edm Top 100 ...
创建时间: 2018-11-05 08:27:04 大小:1.63 GB 文件数量:102 热度:16 最近下载:2025-02-03 06:22:03
    {"RARBG.to.nfo": 32, "FitnessRooms - Mia Navarro - Cute Spanish teen fucks yoga coach.mp4": 270709289}
创建时间: 2018-11-05 08:37:07 大小:258.17 MB 文件数量:2 热度:23 最近下载:2025-08-22 00:35:01
    {"Torrent downloaded from www.DNoid.me - Demonoid.txt": 56, "Torrent Downloaded From Katcr.co - Kickasstorrents.txt": 71, "Dream Yoga - Illuminating Your Life Through Lucid Dreaming and the Tibetan Yogas of Sleep (2016).epub": 2124769}
创建时间: 2018-11-05 08:59:59 大小:2.03 MB 文件数量:3 热度:16 最近下载:2025-10-04 02:05:02
    {"RARBG.to.nfo": 32, "ClubElegantAngel - Brett Rossi - Yoga Pants.mp4": 327814648}
创建时间: 2018-11-05 11:00:26 大小:312.63 MB 文件数量:2 热度:22 最近下载:2023-04-09 02:30:06
    {"cover.jpg": 213453, "Torrent downloaded from AhaShare.com.txt": 59, "Torrent downloaded from www.DNoid.me - Demonoid.txt": 56, "Anatomy and Yoga - A Guide for Teachers and Students (gnv64).epub": 33478894}
创建时间: 2018-11-05 11:10:48 大小:32.13 MB 文件数量:4 热度:14 最近下载:2025-01-20 06:36:02
    {"Sexe & Yoga Notre WeekEnd entre amis 576p.mp4": 2084633577, "sexe-et-yoga-notre-weekend-entre-amis-colmax-cover.jpg": 135326, "Sexe & Yoga Notre WeekEnd entre amis 576p.mp4_thumbs_[2018.02.02_13.22.50].jpg": 442763}
创建时间: 2018-11-05 11:21:12 大小:1.94 GB 文件数量:3 热度:21 最近下载:2025-08-13 10:31:01
    {"The Most Trusted VPN.url": 153, "The Best Video Game Sale.url": 130, "Torrent Downloaded From 1337x.to.txt": 36, "Torrent Downloaded From Katcr.co.txt": 52, "Lesbian Workout In The Yoga Camp XXX P2P.mp4": 75367175}
创建时间: 2018-11-05 11:27:27 大小:71.88 MB 文件数量:5 热度:11 最近下载:2025-02-02 04:02:01
    {"Torrent Downloaded From Katcr.co - Kickasstorrents.txt": 110, "The Modern Yoga Bible - The Definitive Guide to Yoga Today (2017).epub": 30580047}
创建时间: 2018-11-05 11:54:15 大小:29.16 MB 文件数量:2 热度:11 最近下载:2025-02-22 10:42:02
    {"RARBG.com.txt": 34, "sexo-se-iwiaanneli-121111.mp4": 1077275400, "sexo-se-iwiaanneli-121111.nfo": 1167}
创建时间: 2018-11-05 12:10:57 大小:1 GB 文件数量:3 热度:65 最近下载:2025-08-01 12:05:09
    {"Mark Blanchard's Progressive Power Yoga Vol.1.mp4": 370977702, "Mark Blanchard's Progressive Power Yoga Vol.2.mp4": 366977660, "Mark Blanchard's Progressive Power Yoga Vol.3.mp4": 403889230}
创建时间: 2018-11-05 13:03:18 大小:1.06 GB 文件数量:3 热度:10 最近下载:2024-08-05 09:23:01
    {"21s_dpf_6430-480p.mp4": 255500312}
创建时间: 2018-11-05 13:24:11 大小:243.66 MB 文件数量:1 热度:63 最近下载:2025-08-02 16:58:02